createdAt,value
2018-01-02T00:00:12.935Z,1.10
2018-01-02T00:01:14.230Z,1.00
2018-01-02T00:02:15.574Z,1.00
2018-01-02T00:03:16.856Z,0.90
2018-01-02T00:04:18.136Z,1.00
2018-01-02T00:05:19.420Z,0.90
2018-01-02T00:06:20.716Z,1.10
2018-01-02T00:07:22.360Z,0.97
2018-01-02T00:08:23.662Z,0.90
2018-01-02T00:09:25.716Z,1.00
2018-01-02T00:10:27.767Z,0.90
2018-01-02T00:11:29.802Z,0.90
2018-01-02T00:12:31.390Z,0.90
2018-01-02T00:13:32.705Z,0.77
2018-01-02T00:14:34.813Z,0.87
2018-01-02T00:15:36.150Z,0.90
2018-01-02T00:16:37.444Z,1.00
2018-01-02T00:17:39.114Z,0.80
2018-01-02T00:18:40.388Z,1.00
2018-01-02T00:19:41.688Z,0.80
2018-01-02T00:20:42.988Z,0.80
2018-01-02T00:21:45.014Z,0.80
2018-01-02T00:22:46.580Z,0.70
2018-01-02T00:23:48.606Z,0.90
2018-01-02T00:24:49.900Z,0.70
2018-01-02T00:25:51.220Z,1.10
2018-01-02T00:26:52.500Z,1.67
2018-01-02T00:27:53.818Z,1.50
2018-01-02T00:28:55.115Z,1.10
2018-01-02T00:29:57.140Z,1.10
2018-01-02T00:30:58.428Z,1.10
2018-01-02T00:31:59.724Z,0.90
2018-01-02T00:33:01.024Z,0.90
2018-01-02T00:34:02.336Z,0.80
2018-01-02T00:35:03.654Z,0.80
2018-01-02T00:36:04.954Z,0.90
2018-01-02T00:37:06.224Z,1.03
2018-01-02T00:38:08.280Z,0.80
2018-01-02T00:39:10.331Z,0.83
2018-01-02T00:40:12.364Z,0.77
2018-01-02T00:41:13.651Z,0.80
2018-01-02T00:42:14.932Z,0.80
2018-01-02T00:43:16.252Z,0.80
2018-01-02T00:44:18.290Z,0.70
2018-01-02T00:45:19.582Z,0.70
2018-01-02T00:46:21.623Z,0.87
2018-01-02T00:47:22.908Z,0.80
2018-01-02T00:48:24.501Z,0.90
2018-01-02T00:49:26.530Z,1.00
2018-01-02T00:50:27.830Z,1.00
2018-01-02T00:51:29.133Z,1.00
2018-01-02T00:52:31.162Z,0.80
2018-01-02T00:53:32.764Z,0.90
2018-01-02T00:54:34.112Z,1.10
2018-01-02T00:55:35.390Z,1.07
2018-01-02T00:56:36.796Z,0.90
2018-01-02T00:57:38.082Z,1.03
2018-01-02T00:58:40.474Z,0.63
2018-01-02T00:59:41.760Z,0.80
2018-01-02T01:00:43.056Z,0.90
2018-01-02T01:01:44.352Z,0.80
2018-01-02T01:02:46.387Z,0.60
2018-01-02T01:03:47.716Z,0.60
2018-01-02T01:04:49.010Z,0.60
2018-01-02T01:05:50.297Z,0.60
2018-01-02T01:06:51.620Z,0.50
2018-01-02T01:07:52.890Z,0.63
2018-01-02T01:08:55.212Z,0.63
2018-01-02T01:09:56.512Z,0.60
2018-01-02T01:10:57.806Z,0.77
2018-01-02T01:11:59.122Z,0.70
2018-01-02T01:13:00.442Z,0.57
2018-01-02T01:14:02.076Z,0.70
2018-01-02T01:15:03.370Z,0.60
2018-01-02T01:16:05.393Z,0.53
2018-01-02T01:17:06.716Z,0.50
2018-01-02T01:18:08.044Z,0.70
2018-01-02T01:19:09.355Z,0.77
2018-01-02T01:20:10.668Z,0.70
2018-01-02T01:21:12.692Z,0.70
2018-01-02T01:22:14.026Z,0.60
2018-01-02T01:23:15.316Z,0.60
2018-01-02T01:24:16.618Z,0.60
2018-01-02T01:25:17.916Z,0.70
2018-01-02T01:26:19.194Z,0.60
2018-01-02T01:27:20.480Z,0.80
2018-01-02T01:28:21.762Z,0.70
2018-01-02T01:29:23.066Z,0.60
2018-01-02T01:30:24.354Z,0.77
2018-01-02T01:31:26.388Z,0.80
2018-01-02T01:32:27.688Z,0.70
2018-01-02T01:33:28.975Z,0.60
2018-01-02T01:34:30.556Z,0.60
2018-01-02T01:35:31.846Z,0.70
2018-01-02T01:36:33.162Z,0.60
2018-01-02T01:37:34.464Z,0.60
2018-01-02T01:38:35.776Z,0.70
2018-01-02T01:39:37.826Z,0.80
2018-01-02T01:40:39.864Z,0.67
2018-01-02T01:41:41.198Z,0.70
2018-01-02T01:42:42.509Z,0.70
2018-01-02T01:43:43.787Z,0.70
2018-01-02T01:44:46.176Z,0.70
2018-01-02T01:45:47.474Z,0.60
2018-01-02T01:46:49.524Z,0.63
2018-01-02T01:47:50.827Z,0.70
2018-01-02T01:48:54.006Z,0.73
2018-01-02T01:49:55.576Z,0.70
2018-01-02T01:50:56.878Z,0.70
2018-01-02T01:51:58.178Z,0.70
2018-01-02T01:53:00.234Z,0.63
2018-01-02T01:54:02.276Z,0.80
2018-01-02T01:55:04.586Z,0.70
2018-01-02T01:56:05.870Z,0.83
2018-01-02T01:57:07.175Z,0.80
2018-01-02T01:58:08.482Z,0.90
2018-01-02T01:59:09.776Z,0.60
2018-01-02T02:00:11.380Z,0.80
2018-01-02T02:01:12.692Z,0.90
2018-01-02T02:02:13.962Z,0.80
2018-01-02T02:03:15.260Z,0.90
2018-01-02T02:04:16.562Z,0.70
2018-01-02T02:05:18.126Z,0.70
2018-01-02T02:06:20.170Z,0.70
2018-01-02T02:07:22.200Z,0.60
2018-01-02T02:08:23.530Z,0.80
2018-01-02T02:09:24.830Z,0.60
2018-01-02T02:10:26.398Z,0.80
2018-01-02T02:11:27.692Z,0.80
2018-01-02T02:12:29.014Z,0.77
2018-01-02T02:13:31.047Z,0.80
2018-01-02T02:14:32.342Z,0.70
2018-01-02T02:15:33.988Z,0.90
2018-01-02T02:16:35.268Z,0.90
2018-01-02T02:17:36.575Z,0.80
2018-01-02T02:18:37.851Z,0.70
2018-01-02T02:19:39.890Z,0.80
2018-01-02T02:20:41.529Z,0.60
2018-01-02T02:21:42.810Z,0.63
2018-01-02T02:22:44.112Z,1.00
2018-01-02T02:23:45.410Z,1.13
2018-01-02T02:24:46.716Z,0.90
2018-01-02T02:25:48.301Z,0.70
2018-01-02T02:26:49.591Z,0.80
2018-01-02T02:27:51.636Z,0.70
2018-01-02T02:28:53.678Z,0.80
2018-01-02T02:29:54.956Z,1.00
2018-01-02T02:30:56.274Z,0.60
2018-01-02T02:31:58.297Z,0.70
2018-01-02T02:32:59.643Z,0.90
2018-01-02T02:34:01.654Z,0.70
2018-01-02T02:35:02.964Z,0.70
2018-01-02T02:36:04.536Z,0.60
2018-01-02T02:37:05.830Z,0.80
2018-01-02T02:38:07.902Z,0.70
2018-01-02T02:39:09.190Z,0.80
2018-01-02T02:40:10.496Z,0.70
2018-01-02T02:41:11.802Z,0.63
2018-01-02T02:42:13.110Z,0.80
2018-01-02T02:43:14.400Z,0.97
2018-01-02T02:44:15.697Z,0.70
2018-01-02T02:45:17.730Z,0.80
2018-01-02T02:46:19.323Z,0.70
2018-01-02T02:47:20.630Z,0.90
2018-01-02T02:48:21.935Z,0.80
2018-01-02T02:49:23.220Z,0.90
2018-01-02T02:50:24.521Z,0.70
2018-01-02T02:51:26.144Z,0.83
2018-01-02T02:52:28.180Z,0.97
2018-01-02T02:53:29.464Z,0.80
2018-01-02T02:54:30.746Z,0.70
2018-01-02T02:55:32.042Z,0.80
2018-01-02T02:56:34.447Z,0.80
2018-01-02T02:57:35.795Z,0.60
2018-01-02T02:58:37.100Z,0.90
2018-01-02T02:59:38.384Z,0.70
2018-01-02T03:00:39.673Z,0.90
2018-01-02T03:01:41.326Z,0.70
2018-01-02T03:02:42.612Z,0.80
2018-01-02T03:03:43.912Z,0.80
2018-01-02T03:04:45.198Z,0.77
2018-01-02T03:05:46.478Z,0.70
2018-01-02T03:06:48.040Z,0.80
2018-01-02T03:07:49.328Z,0.80
2018-01-02T03:08:51.350Z,0.70
2018-01-02T03:09:52.642Z,0.70
2018-01-02T03:10:53.946Z,0.60
2018-01-02T03:11:56.242Z,0.70
2018-01-02T03:12:57.524Z,0.87
2018-01-02T03:13:58.814Z,0.70
2018-01-02T03:15:00.102Z,0.70
2018-01-02T03:16:01.433Z,0.70
2018-01-02T03:17:03.041Z,0.70
2018-01-02T03:18:04.324Z,0.70
2018-01-02T03:19:06.354Z,0.70
2018-01-02T03:20:07.650Z,0.60
2018-01-02T03:21:08.920Z,0.70
2018-01-02T03:22:10.248Z,0.70
2018-01-02T03:23:11.522Z,0.70
2018-01-02T03:24:13.550Z,0.60
2018-01-02T03:25:14.855Z,0.60
2018-01-02T03:26:17.088Z,0.67
2018-01-02T03:27:21.960Z,0.50
2018-01-02T03:28:23.375Z,0.50
2018-01-02T03:29:24.938Z,0.50
2018-01-02T03:30:33.756Z,0.70
2018-01-02T03:31:36.746Z,0.50
2018-01-02T03:32:39.191Z,0.43
2018-01-02T03:33:40.580Z,0.50
2018-01-02T03:34:49.700Z,0.57
2018-01-02T03:35:55.702Z,0.50
2018-01-02T03:37:05.164Z,0.50
2018-01-02T03:38:11.902Z,0.50
2018-01-02T03:39:13.444Z,0.60
2018-01-02T03:40:15.306Z,0.50
2018-01-02T03:41:21.172Z,0.60
2018-01-02T03:42:22.510Z,0.60
2018-01-02T03:43:24.586Z,0.50
2018-01-02T03:44:36.662Z,0.50
2018-01-02T03:45:38.675Z,0.50
2018-01-02T03:46:41.970Z,0.60
2018-01-02T03:47:44.046Z,0.50
2018-01-02T03:48:45.474Z,0.40
2018-01-02T03:49:52.650Z,0.47
2018-01-02T03:50:54.108Z,0.50
2018-01-02T03:51:56.009Z,0.60
2018-01-02T03:52:58.064Z,0.57
2018-01-02T03:54:08.530Z,0.50
2018-01-02T04:36:36.168Z,0.57
2018-01-02T04:37:39.743Z,0.80
2018-01-02T04:38:44.876Z,0.70
2018-01-02T04:39:51.606Z,1.10
2018-01-02T04:46:01.984Z,0.63
2018-01-02T04:47:03.305Z,0.60
2018-01-02T04:48:05.428Z,0.80
2018-01-02T04:49:18.864Z,0.63
2018-01-02T04:50:20.870Z,0.60
2018-01-02T04:51:28.462Z,0.67
2018-01-02T04:52:36.596Z,0.60
2018-01-02T04:53:39.732Z,0.60
2018-01-02T05:09:01.518Z,1.10
2018-01-02T05:16:45.164Z,0.80
2018-01-02T05:41:15.648Z,1.10
2018-01-02T05:42:19.440Z,1.47
2018-01-02T05:50:43.960Z,0.90
2018-01-02T06:45:23.370Z,1.30
2018-01-02T06:46:25.016Z,0.97
2018-01-02T06:47:26.496Z,1.17
2018-01-02T06:48:34.720Z,1.10
2018-01-02T06:49:36.224Z,1.10
2018-01-02T06:50:38.037Z,1.20
2018-01-02T06:51:39.591Z,1.00
2018-01-02T06:52:41.056Z,1.33
2018-01-02T06:54:02.091Z,1.17
2018-01-02T06:55:03.544Z,1.07
2018-01-02T06:56:05.477Z,1.27
2018-01-02T06:57:07.025Z,1.20
2018-01-02T06:59:37.162Z,0.93
2018-01-02T07:01:00.064Z,1.47
2018-01-02T07:02:02.627Z,1.80
2018-01-02T07:03:10.695Z,1.17
2018-01-02T07:12:46.409Z,1.90
2018-01-02T07:14:01.377Z,1.83
2018-01-02T07:15:02.728Z,1.87
2018-01-02T07:16:09.289Z,2.10
2018-01-02T07:44:20.271Z,1.10
2018-01-02T07:47:25.199Z,1.00
2018-01-02T08:02:10.874Z,1.00
2018-01-02T08:03:13.822Z,1.03
2018-01-02T08:05:24.631Z,0.80
2018-01-02T08:06:26.901Z,0.90
2018-01-02T08:07:30.087Z,0.90
2018-01-02T08:08:31.439Z,1.20
2018-01-02T08:11:06.177Z,1.07
2018-01-02T08:12:08.958Z,1.27
2018-01-02T08:13:10.575Z,0.80
2018-01-02T08:14:14.831Z,0.83
2018-01-02T08:15:28.499Z,0.97
2018-01-02T08:16:30.931Z,0.90
2018-01-02T08:17:35.084Z,1.13
2018-01-02T08:18:37.418Z,1.10
2018-01-02T08:19:39.376Z,1.00
2018-01-02T08:20:46.864Z,0.83
2018-01-02T08:28:24.137Z,0.90
2018-01-02T08:29:32.947Z,1.00
2018-01-02T08:30:35.475Z,1.00
2018-01-02T08:31:39.216Z,1.20
2018-01-02T08:32:45.922Z,1.03
2018-01-02T08:33:47.221Z,1.10
2018-01-02T08:36:38.874Z,1.20
2018-01-02T08:37:41.245Z,1.30
2018-01-02T08:38:46.143Z,1.40
2018-01-02T08:40:08.067Z,1.40
2018-01-02T08:41:09.427Z,1.30
2018-01-02T08:42:16.219Z,1.30
2018-01-02T08:44:57.481Z,1.27
2018-01-02T08:46:18.415Z,1.00
2018-01-02T08:47:21.080Z,1.00
2018-01-02T08:48:23.187Z,1.10
2018-01-02T08:49:25.846Z,1.30
2018-01-02T08:50:34.135Z,1.10
2018-01-02T08:51:35.503Z,1.17
2018-01-02T08:52:46.311Z,1.00
2018-01-02T08:53:47.826Z,1.30
2018-01-02T09:00:44.789Z,1.00
2018-01-02T09:01:48.843Z,1.03
2018-01-02T09:28:37.673Z,3.80
2018-01-02T09:29:41.440Z,3.83
2018-01-02T09:34:04.183Z,1.10
2018-01-02T09:35:05.785Z,0.83
2018-01-02T09:36:29.261Z,1.00
2018-01-02T09:37:30.797Z,0.90
2018-01-02T09:38:32.337Z,0.80
2018-01-02T09:39:34.833Z,1.00
2018-01-02T09:40:36.336Z,1.00
2018-01-02T09:41:38.875Z,1.03
2018-01-02T09:42:42.029Z,1.00
2018-01-02T09:43:43.926Z,0.90
2018-01-02T09:44:45.939Z,1.00
2018-01-02T09:55:37.650Z,1.27
2018-01-02T09:56:39.501Z,1.13
2018-01-02T09:57:41.011Z,1.10
2018-01-02T09:59:04.451Z,1.03
2018-01-02T10:00:07.275Z,1.60
2018-01-02T10:01:15.479Z,1.20
2018-01-02T10:02:20.169Z,1.10
2018-01-02T10:08:37.935Z,1.10
2018-01-02T10:09:46.258Z,0.93
2018-01-02T10:10:49.786Z,1.07
2018-01-02T10:12:30.132Z,0.80
2018-01-02T10:13:31.811Z,0.77
2018-01-02T10:14:35.605Z,0.90
2018-01-02T10:15:49.073Z,1.00
2018-01-02T10:16:50.355Z,0.97
2018-01-02T10:17:58.249Z,0.70
2018-01-02T10:19:03.824Z,0.80
2018-01-02T10:20:05.861Z,1.10
2018-01-02T10:21:19.659Z,1.00
2018-01-02T10:22:21.047Z,1.30
2018-01-02T10:23:24.151Z,1.27
2018-01-02T10:51:45.397Z,0.97
2018-01-02T10:52:46.739Z,0.90
2018-01-02T10:53:48.031Z,0.83
2018-01-02T10:54:49.367Z,1.00
2018-01-02T10:55:51.499Z,1.00
2018-01-02T10:58:26.409Z,0.90
2018-01-02T10:59:32.901Z,0.80
2018-01-02T11:00:58.567Z,0.90
2018-01-02T11:02:05.029Z,0.90
2018-01-02T11:03:06.352Z,0.80
2018-01-02T11:04:07.661Z,0.80
2018-01-02T11:05:08.999Z,0.70
2018-01-02T11:06:11.223Z,1.40
2018-01-02T11:07:18.311Z,2.07
2018-01-02T11:08:19.845Z,1.53
2018-01-02T11:09:22.329Z,1.90
2018-01-02T11:10:23.667Z,1.80
2018-01-02T11:23:53.479Z,1.20
2018-01-02T11:51:19.688Z,1.20
2018-01-02T11:52:21.821Z,1.27
2018-01-02T11:53:23.389Z,1.37
2018-01-02T11:54:24.697Z,1.10
2018-01-02T11:56:35.199Z,1.10
2018-01-02T11:57:41.627Z,1.10
2018-01-02T12:14:08.479Z,1.00
2018-01-02T12:15:11.039Z,0.90
2018-01-02T12:16:14.443Z,0.90
2018-01-02T12:17:19.377Z,1.03
2018-01-02T12:18:21.691Z,1.00
2018-01-02T12:19:26.937Z,1.00
2018-01-02T12:20:28.283Z,1.20
2018-01-02T12:21:30.278Z,1.00
2018-01-02T12:23:47.340Z,1.17
2018-01-02T12:24:48.701Z,0.93
2018-01-02T12:25:55.397Z,1.10
2018-01-02T12:27:01.787Z,1.00
2018-01-02T12:28:05.407Z,1.10
2018-01-02T12:29:10.843Z,1.17
2018-01-02T12:31:50.029Z,1.20
2018-01-02T12:42:37.083Z,0.90
2018-01-02T12:43:38.757Z,1.40
2018-01-02T12:44:41.049Z,3.40
2018-01-02T12:45:44.913Z,2.50
2018-01-02T12:46:47.931Z,2.30
2018-01-02T12:47:57.835Z,1.83
2018-01-02T12:48:59.235Z,1.40
2018-01-02T12:50:04.437Z,1.40
2018-01-02T12:51:06.543Z,1.20
2018-01-02T12:52:14.441Z,1.20
2018-01-02T12:53:24.819Z,0.90
2018-01-02T12:54:26.937Z,1.00
2018-01-02T12:55:29.801Z,1.13
2018-01-02T12:56:31.631Z,1.10
2018-01-02T12:57:33.023Z,0.90
2018-01-02T12:58:34.543Z,1.23
2018-01-02T12:59:36.735Z,1.03
2018-01-02T13:00:38.815Z,0.97
2018-01-02T13:02:50.727Z,0.97
2018-01-02T13:03:52.315Z,0.90
2018-01-02T13:04:55.281Z,1.40
2018-01-02T13:05:57.701Z,1.70
2018-01-02T13:06:59.891Z,1.97
2018-01-02T13:08:04.003Z,1.80
2018-01-02T13:09:07.444Z,1.63
2018-01-02T13:10:10.771Z,1.67
2018-01-02T13:11:12.199Z,1.37
2018-01-02T13:13:30.400Z,1.73
2018-01-02T13:14:33.765Z,1.73
2018-01-02T13:15:35.081Z,2.63
2018-01-02T13:16:37.415Z,1.97
2018-01-02T13:17:38.703Z,1.47
2018-01-02T13:18:53.223Z,1.37
2018-01-02T14:40:59.697Z,1.47
2018-01-02T14:42:04.417Z,1.80
2018-01-02T15:15:35.896Z,2.17
2018-01-02T15:16:37.187Z,1.97
2018-01-02T15:17:39.235Z,1.53
2018-01-02T16:37:56.113Z,1.80
2018-01-02T16:40:09.223Z,1.67
2018-01-02T16:41:14.541Z,1.50
2018-01-02T16:42:16.973Z,1.90
2018-01-02T16:43:24.174Z,2.00
2018-01-02T16:49:16.077Z,1.50
2018-01-02T16:50:17.380Z,2.00
2018-01-02T16:57:12.285Z,3.53
2018-01-02T16:58:14.640Z,3.37
2018-01-02T16:59:16.693Z,2.50
2018-01-02T17:00:18.772Z,2.43
2018-01-02T17:01:20.106Z,2.17
2018-01-02T17:12:06.632Z,1.90
2018-01-02T17:13:08.677Z,1.83
2018-01-02T17:14:10.726Z,2.10
2018-01-02T17:15:12.042Z,1.87
2018-01-02T17:16:14.115Z,1.97
2018-01-02T17:17:15.725Z,1.70
2018-01-02T17:18:17.034Z,1.73
2018-01-02T17:19:18.326Z,1.90
2018-01-02T17:20:19.653Z,1.80
2018-01-02T17:21:20.973Z,2.00
2018-01-02T17:22:22.435Z,2.03
2018-01-02T17:23:23.773Z,1.80
2018-01-02T17:24:25.181Z,2.20
2018-01-02T17:25:26.520Z,2.10
2018-01-02T17:26:27.879Z,2.10
2018-01-02T17:27:29.270Z,1.90
2018-01-02T17:28:30.592Z,2.60
2018-01-02T17:29:32.676Z,2.20
2018-01-02T17:30:34.039Z,2.10
2018-01-02T17:31:35.328Z,2.13
2018-01-02T17:32:36.927Z,2.10
2018-01-02T17:33:38.258Z,2.50
2018-01-02T17:34:39.569Z,2.20
2018-01-02T17:35:40.894Z,2.37
2018-01-02T17:36:42.251Z,2.17
2018-01-02T17:37:43.605Z,2.00
2018-01-02T17:38:44.913Z,1.90
2018-01-02T17:39:46.219Z,1.93
2018-01-02T17:40:48.278Z,2.17
2018-01-02T17:41:50.336Z,2.03
2018-01-02T17:42:52.436Z,2.43
2018-01-02T17:43:53.766Z,2.67
2018-01-02T17:44:55.080Z,2.30
2018-01-02T17:45:56.388Z,2.13
2018-01-02T17:46:58.446Z,2.00
2018-01-02T17:48:00.754Z,2.30
2018-01-02T17:50:33.859Z,2.37
2018-01-02T17:51:35.146Z,2.40
2018-01-02T17:52:37.179Z,2.40
2018-01-02T17:53:38.755Z,2.30
2018-01-02T17:54:40.048Z,3.57
2018-01-02T17:55:41.388Z,4.00
2018-01-02T17:56:42.692Z,3.23
2018-01-02T17:57:43.994Z,2.67
2018-01-02T17:58:46.071Z,2.77
2018-01-02T17:59:47.367Z,2.33
2018-01-02T18:00:49.544Z,2.57
2018-01-02T18:01:50.774Z,2.50
2018-01-02T18:02:52.844Z,2.83
2018-01-02T18:03:54.423Z,2.70
2018-01-02T18:04:55.706Z,3.00
2018-01-02T18:05:57.742Z,3.20
2018-01-02T18:06:59.028Z,3.27
2018-01-02T18:08:00.316Z,3.10
2018-01-02T18:09:01.622Z,3.13
2018-01-02T18:10:03.826Z,4.70
2018-01-02T18:11:05.880Z,3.57
2018-01-02T18:12:07.938Z,2.50
2018-01-02T18:13:09.992Z,2.60
2018-01-02T18:14:12.305Z,2.53
2018-01-02T18:15:13.610Z,2.93
2018-01-02T18:16:14.900Z,2.77
2018-01-02T18:17:16.238Z,2.43
2018-01-02T18:18:17.624Z,2.33
2018-01-02T18:19:18.959Z,2.17
2018-01-02T18:20:20.266Z,1.97
2018-01-02T18:21:22.303Z,2.20
2018-01-02T18:22:23.586Z,1.90
2018-01-02T18:23:24.892Z,2.37
2018-01-02T18:24:26.943Z,2.03
2018-01-02T18:25:29.000Z,1.80
2018-01-02T18:26:31.026Z,1.90
2018-01-02T18:27:32.319Z,2.10
2018-01-02T18:28:33.604Z,1.73
2018-01-02T18:29:34.928Z,2.03
2018-01-02T18:30:36.242Z,1.90
2018-01-02T18:31:37.544Z,1.70
2018-01-02T18:32:39.571Z,1.80
2018-01-02T18:33:40.896Z,1.93
2018-01-02T18:34:42.484Z,2.20
2018-01-02T18:35:43.772Z,2.10
2018-01-02T18:36:45.097Z,2.63
2018-01-02T18:38:54.210Z,2.30
2018-01-02T18:39:55.522Z,2.40
2018-01-02T18:40:56.847Z,2.13
2018-01-02T18:41:58.884Z,3.53
2018-01-02T18:43:00.944Z,5.43
2018-01-02T18:44:03.012Z,8.03
2018-01-02T18:45:04.357Z,5.87
2018-01-02T18:46:05.688Z,4.03
2018-01-02T18:47:07.733Z,3.00
2018-01-02T18:48:09.778Z,6.97
2018-01-02T18:49:11.812Z,4.70
2018-01-02T18:50:13.142Z,4.87
2018-01-02T18:51:14.475Z,7.37
2018-01-02T18:52:15.772Z,5.47
2018-01-02T18:53:17.072Z,4.43
2018-01-02T18:54:18.402Z,2.90
2018-01-02T18:55:19.735Z,2.93
2018-01-02T18:56:21.042Z,2.47
2018-01-02T18:57:22.316Z,2.57
2018-01-02T18:58:23.618Z,2.60
2018-01-02T18:59:24.910Z,4.37
2018-01-02T19:00:27.297Z,5.90
2018-01-02T19:01:28.603Z,4.10
2018-01-02T19:02:30.673Z,3.60
2018-01-02T19:03:31.978Z,3.07
2018-01-02T19:04:33.292Z,2.13
2018-01-02T19:05:34.622Z,3.17
2018-01-02T19:06:35.938Z,2.37
2018-01-02T19:07:37.231Z,1.77
2018-01-02T19:08:39.254Z,2.27
2018-01-02T19:09:40.572Z,2.27
2018-01-02T19:10:41.940Z,2.00
2018-01-02T19:11:43.260Z,2.10
2018-01-02T19:12:44.596Z,2.13
2018-01-02T19:13:45.890Z,2.50
2018-01-02T19:14:47.929Z,2.20
2018-01-02T19:15:49.994Z,1.90
2018-01-02T19:16:52.022Z,1.90
2018-01-02T19:17:53.310Z,7.43
2018-01-02T19:18:54.598Z,3.47
2018-01-02T19:19:55.888Z,2.60
2018-01-02T19:20:57.204Z,2.37
2018-01-02T19:21:58.488Z,2.63
2018-01-02T19:22:59.780Z,1.83
2018-01-02T19:25:08.854Z,1.90
2018-01-02T19:26:10.436Z,1.90
2018-01-02T19:27:12.495Z,2.00
2018-01-02T19:28:13.798Z,1.63
2018-01-02T19:29:15.092Z,1.50
2018-01-02T19:30:16.378Z,1.67
2018-01-02T19:31:17.676Z,1.60
2018-01-02T19:32:18.970Z,1.43
2018-01-02T19:33:21.006Z,1.63
2018-01-02T19:34:22.301Z,2.00
2018-01-02T19:35:23.600Z,1.50
2018-01-02T19:36:25.930Z,1.83
2018-01-02T19:37:27.251Z,1.57
2018-01-02T19:38:28.585Z,1.90
2018-01-02T19:39:29.916Z,1.70
2018-01-02T19:40:31.216Z,1.67
2018-01-02T19:41:32.534Z,1.90
2018-01-02T19:42:34.600Z,1.93
2018-01-02T19:43:35.888Z,2.00
2018-01-02T19:44:37.174Z,1.80
2018-01-02T19:45:38.486Z,1.90
2018-01-02T19:46:39.838Z,1.50
2018-01-02T19:47:41.864Z,1.80
2018-01-02T19:48:43.206Z,1.50
2018-01-02T19:49:44.524Z,1.60
2018-01-02T19:50:45.950Z,1.63
2018-01-02T19:51:47.328Z,1.83
2018-01-02T19:52:48.644Z,1.80
2018-01-02T19:53:50.026Z,1.80
2018-01-02T19:54:51.418Z,1.80
2018-01-02T19:55:52.900Z,1.87
2018-01-02T19:56:55.063Z,1.70
2018-01-02T19:57:56.426Z,1.67
2018-01-02T19:58:57.756Z,1.80
2018-01-02T19:59:59.066Z,1.87
2018-01-02T20:01:01.238Z,1.60
2018-01-02T20:02:02.948Z,1.70
2018-01-02T20:03:04.417Z,1.80
2018-01-02T20:04:05.722Z,1.70
2018-01-02T20:05:07.175Z,2.00
2018-01-02T20:06:09.396Z,1.93
2018-01-02T20:07:11.060Z,1.60
2018-01-02T20:08:12.519Z,2.37
2018-01-02T20:09:14.652Z,2.07
2018-01-02T20:10:16.100Z,1.90
2018-01-02T20:11:17.452Z,2.33
2018-01-02T20:12:19.516Z,2.20
2018-01-02T20:13:21.556Z,2.07
2018-01-02T20:14:23.610Z,1.97
2018-01-02T20:15:24.908Z,1.80
2018-01-02T20:16:26.197Z,1.80
2018-01-02T20:17:28.264Z,1.67
2018-01-02T20:18:35.572Z,2.10
2018-01-02T20:19:36.904Z,1.97
2018-01-02T20:20:38.227Z,1.53
2018-01-02T20:21:39.524Z,1.67
2018-01-02T20:22:40.861Z,1.57
2018-01-02T20:23:42.157Z,1.40
2018-01-02T20:24:43.484Z,1.63
2018-01-02T20:25:44.827Z,1.70
2018-01-02T20:26:46.148Z,1.73
2018-01-02T20:27:47.464Z,1.40
2018-01-02T20:28:49.504Z,1.70
2018-01-02T20:29:51.562Z,1.50
2018-01-02T20:30:53.622Z,1.53
2018-01-02T20:31:55.656Z,1.80
2018-01-02T20:32:56.958Z,1.80
2018-01-02T20:33:59.000Z,2.03
2018-01-02T20:35:00.292Z,1.70
2018-01-02T20:36:02.324Z,1.87
2018-01-02T20:37:03.644Z,2.07
2018-01-02T20:38:04.987Z,1.80
2018-01-02T20:39:06.286Z,1.83
2018-01-02T20:40:07.576Z,1.57
2018-01-02T20:41:08.870Z,1.60
2018-01-02T20:42:10.170Z,1.67
2018-01-02T20:43:12.474Z,1.73
2018-01-02T20:44:13.778Z,1.50
2018-01-02T20:45:15.810Z,1.53
2018-01-02T20:46:17.152Z,1.80
2018-01-02T20:47:19.184Z,1.60
2018-01-02T20:48:20.506Z,1.70
2018-01-02T20:49:22.491Z,1.70
2018-01-02T20:50:23.799Z,1.90
2018-01-02T20:51:25.100Z,2.00
2018-01-02T20:52:26.378Z,1.73
2018-01-02T20:53:27.706Z,1.63
2018-01-02T20:54:29.008Z,1.50
2018-01-02T20:55:31.698Z,1.73
2018-01-02T20:56:32.990Z,1.70
2018-01-02T20:57:35.012Z,1.50
2018-01-02T20:58:36.330Z,1.60
2018-01-02T20:59:38.362Z,1.70
2018-01-02T21:00:39.674Z,1.43
2018-01-02T21:01:41.700Z,1.70
2018-01-02T21:02:42.980Z,1.53
2018-01-02T21:03:44.287Z,1.60
2018-01-02T21:04:46.316Z,1.60
2018-01-02T21:05:47.630Z,1.50
2018-01-02T21:06:48.932Z,1.37
2018-01-02T21:07:50.979Z,1.30
2018-01-02T21:08:53.040Z,1.83
2018-01-02T21:09:55.080Z,1.33
2018-01-02T21:10:57.112Z,1.30
2018-01-02T21:11:58.460Z,1.47
2018-01-02T21:12:59.784Z,1.40
2018-01-02T21:14:01.096Z,1.43
2018-01-02T21:15:02.438Z,1.30
2018-01-02T21:16:03.764Z,1.67
2018-01-02T21:17:05.070Z,1.73
2018-01-02T21:18:06.358Z,1.63
2018-01-02T21:19:07.682Z,1.57
2018-01-02T21:20:08.986Z,1.70
2018-01-02T21:21:10.266Z,1.43
2018-01-02T21:22:11.550Z,1.70
2018-01-02T21:23:13.566Z,1.50
2018-01-02T21:24:14.900Z,1.57
2018-01-02T21:25:16.206Z,1.80
2018-01-02T21:26:17.522Z,1.70
2018-01-02T21:27:18.804Z,1.50
2018-01-02T21:28:20.124Z,1.90
2018-01-02T21:29:21.698Z,1.40
2018-01-02T21:30:23.010Z,1.73
2018-01-02T21:31:25.050Z,1.97
2018-01-02T21:32:26.354Z,2.00
2018-01-02T21:33:28.372Z,1.80
2018-01-02T21:34:29.698Z,1.53
2018-01-02T21:35:30.997Z,1.33
2018-01-02T21:36:32.284Z,1.47
2018-01-02T21:37:33.572Z,1.33
2018-01-02T21:38:34.872Z,1.60
2018-01-02T21:39:36.413Z,1.43
2018-01-02T21:40:38.448Z,1.77
2018-01-02T21:41:39.752Z,1.60
2018-01-02T21:42:48.020Z,1.73
2018-01-02T21:43:50.066Z,1.43
2018-01-02T21:44:51.384Z,1.40
2018-01-02T21:45:52.680Z,1.60
2018-01-02T21:46:53.987Z,1.50
2018-01-02T21:47:55.990Z,1.53
2018-01-02T21:48:58.032Z,1.67
2018-01-02T21:49:59.637Z,1.60
2018-01-02T21:51:01.672Z,1.40
2018-01-02T21:52:03.702Z,1.30
2018-01-02T21:53:04.992Z,1.50
2018-01-02T21:54:06.309Z,1.23
2018-01-02T21:55:08.639Z,1.40
2018-01-02T21:56:09.925Z,1.50
2018-01-02T21:57:11.233Z,1.53
2018-01-02T21:58:13.297Z,1.60
2018-01-02T21:59:15.338Z,1.27
2018-01-02T22:00:16.656Z,1.50
2018-01-02T22:01:17.967Z,1.33
2018-01-02T22:02:19.260Z,1.40
2018-01-02T22:03:21.308Z,1.30
2018-01-02T22:04:23.373Z,1.80
2018-01-02T22:05:25.432Z,1.50
2018-01-02T22:06:27.470Z,1.57
2018-01-02T22:07:29.532Z,1.53
2018-01-02T22:08:31.576Z,1.37
2018-01-02T22:09:33.622Z,1.53
2018-01-02T22:10:35.218Z,1.33
2018-01-02T22:11:36.552Z,1.20
2018-01-02T22:12:37.868Z,1.53
2018-01-02T22:13:39.902Z,1.50
2018-01-02T22:14:41.948Z,1.20
2018-01-02T22:15:43.516Z,1.03
2018-01-02T22:16:45.534Z,1.40
2018-01-02T22:17:46.842Z,1.40
2018-01-02T22:18:48.164Z,1.30
2018-01-02T22:19:49.466Z,1.20
2018-01-02T22:20:51.528Z,1.47
2018-01-02T22:21:53.582Z,1.40
2018-01-02T22:22:55.616Z,1.20
2018-01-02T22:23:56.917Z,1.30
2018-01-02T22:24:58.216Z,1.30
2018-01-02T22:25:59.792Z,1.40
2018-01-02T22:27:01.090Z,1.10
2018-01-02T22:28:03.116Z,1.20
2018-01-02T22:29:04.430Z,1.30
2018-01-02T22:30:05.738Z,1.20
2018-01-02T22:31:07.062Z,1.40
2018-01-02T22:32:08.396Z,1.27
2018-01-02T22:33:09.705Z,1.40
2018-01-02T22:34:11.025Z,1.23
2018-01-02T22:35:13.057Z,1.30
2018-01-02T22:36:14.703Z,1.43
2018-01-02T22:37:16.032Z,1.27
2018-01-02T22:38:17.320Z,1.20
2018-01-02T22:39:19.428Z,1.10
2018-01-02T22:40:20.723Z,1.40
2018-01-02T22:41:22.780Z,1.30
2018-01-02T22:42:24.832Z,1.23
2018-01-02T22:43:26.866Z,1.30
2018-01-02T22:44:28.158Z,1.10
2018-01-02T22:45:29.450Z,1.30
2018-01-02T22:46:31.494Z,1.10
2018-01-02T22:47:32.790Z,1.13
2018-01-02T22:48:34.088Z,1.63
2018-01-02T22:49:36.131Z,1.20
2018-01-02T22:50:38.158Z,1.20
2018-01-02T22:51:39.761Z,1.10
2018-01-02T22:52:41.066Z,1.20
2018-01-02T22:53:43.090Z,1.20
2018-01-02T22:54:44.380Z,1.07
2018-01-02T22:55:45.651Z,1.30
2018-01-02T22:56:46.944Z,1.13
2018-01-02T22:57:48.234Z,1.50
2018-01-02T22:58:49.514Z,1.23
2018-01-02T22:59:50.834Z,1.10
2018-01-02T23:00:52.897Z,1.40
2018-01-02T23:01:55.223Z,1.37
2018-01-02T23:02:56.515Z,1.47
2018-01-02T23:03:57.807Z,1.00
2018-01-02T23:04:59.122Z,1.20
2018-01-02T23:06:00.441Z,1.20
2018-01-02T23:07:01.792Z,1.23
2018-01-02T23:08:03.082Z,1.23
2018-01-02T23:09:05.133Z,1.30
2018-01-02T23:10:07.192Z,0.97
2018-01-02T23:11:08.490Z,1.10
2018-01-02T23:12:09.794Z,1.10
2018-01-02T23:13:11.094Z,1.03
2018-01-02T23:14:13.130Z,1.10
2018-01-02T23:15:14.420Z,1.17
2018-01-02T23:16:15.748Z,1.00
2018-01-02T23:17:17.321Z,1.20
2018-01-02T23:18:18.654Z,1.27
2018-01-02T23:19:19.938Z,1.10
2018-01-02T23:20:21.971Z,1.30
2018-01-02T23:21:24.062Z,1.00
2018-01-02T23:22:26.084Z,1.13
2018-01-02T23:23:28.140Z,1.40
2018-01-02T23:24:30.186Z,1.07
2018-01-02T23:25:31.498Z,1.23
2018-01-02T23:26:32.770Z,1.30
2018-01-02T23:27:35.079Z,1.30
2018-01-02T23:28:36.415Z,1.23
2018-01-02T23:29:37.704Z,1.00
2018-01-02T23:30:39.720Z,1.00
2018-01-02T23:31:41.000Z,1.30
2018-01-02T23:32:43.044Z,1.00
2018-01-02T23:33:44.339Z,1.10
2018-01-02T23:34:45.631Z,0.90